Time;durP1;ratioP1;P1;durP2;ratioP2;P2;SDS_P1;SDS_P2;PMS_P1;PMS_P2;Temp;Humidity;BMP_temperature;BMP_pressure;BME280_temperature;BME280_humidity;BME280_pressure;Samples;Min_cycle;Max_cycle;Signal;HPM_P1;HPM_P2
2021/10/06 00:01:26;;;;;;;4.20;1.10;;;;;;;12.96;74.76;100121.47;5049570;28;20209;-72
2021/10/06 00:03:53;;;;;;;2.23;0.90;;;;;;;12.96;74.73;100120.63;5053085;28;20211;-73
2021/10/06 00:06:21;;;;;;;2.70;1.10;;;;;;;12.96;74.76;100125.97;5055410;28;20205;-73
2021/10/06 00:08:48;;;;;;;3.00;0.93;;;;;;;12.94;74.72;100128.75;5072817;22;20237;-72
2021/10/06 00:11:14;;;;;;;2.43;0.80;;;;;;;12.95;74.60;100129.59;5048877;28;20206;-70
2021/10/06 00:13:41;;;;;;;1.87;0.80;;;;;;;12.93;74.70;100128.88;5045680;28;20224;-72
2021/10/06 00:16:10;;;;;;;3.00;1.10;;;;;;;12.91;74.77;100125.47;5052551;28;20202;-71
2021/10/06 00:18:36;;;;;;;4.40;1.00;;;;;;;12.90;74.55;100131.84;5052397;28;20242;-72
2021/10/06 00:21:03;;;;;;;3.50;1.20;;;;;;;12.89;74.97;100133.66;5052624;28;20209;-72
2021/10/06 00:23:32;;;;;;;1.73;0.77;;;;;;;12.87;74.73;100132.91;5050463;28;20210;-72
2021/10/06 00:25:58;;;;;;;3.23;1.20;;;;;;;12.88;74.74;100139.13;5051686;28;20201;-72
2021/10/06 00:28:25;;;;;;;1.97;1.03;;;;;;;12.85;74.81;100146.41;5048801;28;20228;-72
2021/10/06 00:30:52;;;;;;;2.93;0.83;;;;;;;12.83;74.88;100143.00;5051317;28;20208;-72
2021/10/06 00:33:18;;;;;;;2.50;0.70;;;;;;;12.82;75.06;100148.47;5046973;28;20214;-72
2021/10/06 00:35:45;;;;;;;2.40;0.80;;;;;;;12.79;74.91;100146.88;5041121;28;20213;-72
2021/10/06 00:38:11;;;;;;;3.87;0.90;;;;;;;12.79;74.84;100151.38;5037451;28;20206;-72
2021/10/06 00:40:39;;;;;;;2.60;0.93;;;;;;;12.77;75.20;100158.66;5032633;28;20224;-72
2021/10/06 00:43:06;;;;;;;2.53;0.83;;;;;;;12.74;74.85;100165.09;5049928;28;20679;-72
2021/10/06 00:45:32;;;;;;;2.93;0.90;;;;;;;12.72;75.04;100161.69;5053051;28;20299;-72
2021/10/06 00:47:59;;;;;;;1.63;1.00;;;;;;;12.70;75.09;100157.47;5051749;28;20208;-73
2021/10/06 00:50:26;;;;;;;1.03;0.77;;;;;;;12.68;75.02;100160.28;5051420;28;20206;-72
2021/10/06 00:52:52;;;;;;;3.43;1.10;;;;;;;12.67;75.33;100163.91;5046035;28;20216;-72
2021/10/06 00:55:19;;;;;;;3.10;0.90;;;;;;;12.65;75.41;100171.19;5048866;28;20209;-72
2021/10/06 00:57:46;;;;;;;3.63;0.90;;;;;;;12.65;75.39;100165.84;5041469;28;20213;-72
2021/10/06 01:00:14;;;;;;;4.13;1.20;;;;;;;12.65;75.57;100173.00;5049635;28;20225;-72
2021/10/06 01:02:40;;;;;;;2.30;1.20;;;;;;;12.63;75.44;100177.63;5052130;28;20209;-72
2021/10/06 01:05:09;;;;;;;4.37;1.30;;;;;;;12.63;75.13;100180.31;5039026;28;20216;-72
2021/10/06 01:07:36;;;;;;;2.53;1.30;;;;;;;12.61;75.16;100183.09;5044747;28;20211;-72
2021/10/06 01:10:04;;;;;;;3.87;1.30;;;;;;;12.58;75.11;100183.34;5046909;28;20231;-73
2021/10/06 01:12:31;;;;;;;1.63;1.03;;;;;;;12.57;75.29;100186.97;5051700;28;20685;-72
2021/10/06 01:14:59;;;;;;;1.93;1.20;;;;;;;12.56;75.12;100187.94;5051836;28;20202;-72
2021/10/06 01:17:26;;;;;;;1.90;1.10;;;;;;;12.54;75.31;100192.53;5040148;28;20218;-71
2021/10/06 01:19:53;;;;;;;4.47;1.13;;;;;;;12.52;75.06;100192.69;5041216;28;20231;-72
2021/10/06 01:22:20;;;;;;;5.60;1.40;;;;;;;12.48;75.25;100196.56;5041500;28;20697;-72
2021/10/06 01:24:47;;;;;;;2.27;1.23;;;;;;;12.45;75.35;100195.97;5042145;28;20279;-72
2021/10/06 01:27:14;;;;;;;3.30;1.50;;;;;;;12.43;75.40;100192.56;5052055;28;20203;-72
2021/10/06 01:29:40;;;;;;;2.70;1.23;;;;;;;12.41;75.34;100205.16;5050712;28;20218;-72
2021/10/06 01:32:11;;;;;;;1.93;1.40;;;;;;;12.38;74.89;100200.06;5047069;28;20210;-72
2021/10/06 01:34:38;;;;;;;3.67;1.47;;;;;;;12.36;75.35;100202.84;5045011;28;20543;-72
2021/10/06 01:37:05;;;;;;;3.03;1.50;;;;;;;12.35;75.36;100203.00;5033885;28;20219;-72
2021/10/06 01:39:33;;;;;;;4.40;1.30;;;;;;;12.33;75.28;100200.44;5048948;28;20239;-72
2021/10/06 01:42:00;;;;;;;4.07;1.37;;;;;;;12.32;75.06;100206.75;5041233;28;20206;-72
2021/10/06 01:44:27;;;;;;;2.97;1.30;;;;;;;12.32;75.51;100201.41;5051689;28;20216;-72
2021/10/06 01:46:54;;;;;;;2.70;1.30;;;;;;;12.31;75.31;100202.38;5042890;28;20212;-72
2021/10/06 01:49:20;;;;;;;4.80;1.50;;;;;;;12.30;75.73;100208.69;5039136;28;20234;-72
2021/10/06 01:51:47;;;;;;;3.00;1.30;;;;;;;12.31;75.51;100215.72;5050710;28;20201;-71
2021/10/06 01:54:13;;;;;;;2.37;1.13;;;;;;;12.31;75.24;100217.56;5051220;28;20203;-72
2021/10/06 01:56:41;;;;;;;3.13;1.00;;;;;;;12.31;75.60;100217.56;5050950;28;20209;-73
2021/10/06 01:59:08;;;;;;;2.47;1.30;;;;;;;12.30;75.31;100224.72;5039149;28;20232;-72
2021/10/06 02:01:34;;;;;;;4.20;1.30;;;;;;;12.31;75.28;100228.22;5047576;28;20232;-72
2021/10/06 02:04:01;;;;;;;2.90;1.10;;;;;;;12.32;75.35;100228.13;5047066;28;20206;-72
2021/10/06 02:06:27;;;;;;;3.60;1.43;;;;;;;12.32;75.31;100221.94;5049016;28;20221;-72
2021/10/06 02:08:54;;;;;;;1.33;0.90;;;;;;;12.31;75.30;100229.09;5044617;28;20234;-72
2021/10/06 02:11:21;;;;;;;3.30;1.10;;;;;;;12.30;75.39;100227.38;5051552;28;20207;-72
2021/10/06 02:13:48;;;;;;;1.87;1.07;;;;;;;12.30;75.57;100227.38;5050811;28;20205;-72
2021/10/06 02:16:15;;;;;;;4.23;1.47;;;;;;;12.29;75.55;100228.34;5044874;28;20572;-72
2021/10/06 02:18:42;;;;;;;2.17;1.37;;;;;;;12.31;75.47;100220.22;5048246;28;20232;-73
2021/10/06 02:21:08;;;;;;;2.37;1.10;;;;;;;12.28;75.26;100226.66;5043501;28;20201;-72
2021/10/06 02:23:35;;;;;;;1.80;1.10;;;;;;;12.26;75.41;100222.38;5050569;28;20206;-72
2021/10/06 02:26:01;;;;;;;3.00;1.10;;;;;;;12.26;75.20;100227.72;5050622;28;20202;-72
2021/10/06 02:28:28;;;;;;;2.17;1.37;;;;;;;12.23;75.00;100228.81;5047571;28;20233;-73
2021/10/06 02:30:57;;;;;;;3.97;1.70;;;;;;;12.22;75.16;100229.78;5041457;28;20198;-72
2021/10/06 02:33:23;;;;;;;5.17;1.50;;;;;;;12.21;75.35;100222.72;5048242;28;20221;-72
2021/10/06 02:35:50;;;;;;;2.63;1.20;;;;;;;12.20;75.10;100234.38;5045220;28;20215;-72
2021/10/06 02:38:16;;;;;;;3.07;1.40;;;;;;;12.20;75.35;100229.03;5042025;28;20198;-71
2021/10/06 02:40:43;;;;;;;4.60;1.23;;;;;;;12.20;75.11;100239.72;5046154;28;20226;-72
2021/10/06 02:43:09;;;;;;;2.40;1.17;;;;;;;12.19;75.09;100251.38;5038622;28;20777;-72
2021/10/06 02:45:36;;;;;;;2.97;1.47;;;;;;;12.19;75.27;100243.34;5037720;28;20215;-72
2021/10/06 02:48:04;;;;;;;4.53;1.80;;;;;;;12.18;75.35;100250.50;5032820;28;20214;-71
2021/10/06 02:50:31;;;;;;;2.33;1.63;;;;;;;12.17;75.40;100245.31;5040666;28;20686;-72
2021/10/06 02:52:57;;;;;;;4.93;1.50;;;;;;;12.18;75.37;100242.50;5042031;28;20716;-70
2021/10/06 02:55:24;;;;;;;3.23;1.30;;;;;;;12.19;75.19;100248.69;5039539;28;20202;-72
2021/10/06 02:57:50;;;;;;;1.53;1.43;;;;;;;12.18;75.47;100244.34;5050671;28;20213;-72
2021/10/06 03:00:17;;;;;;;3.03;1.27;;;;;;;12.18;75.42;100258.53;5049666;28;20230;-71
2021/10/06 03:02:44;;;;;;;4.47;1.63;;;;;;;12.18;75.35;100255.03;5044698;28;20210;-71
2021/10/06 03:05:13;;;;;;;2.30;1.30;;;;;;;12.18;75.12;100256.84;5049532;28;20207;-73
2021/10/06 03:07:40;;;;;;;2.37;1.23;;;;;;;12.15;75.21;100252.59;5049926;28;20206;-72
2021/10/06 03:10:09;;;;;;;2.70;1.13;;;;;;;12.14;75.19;100253.56;5045965;28;20234;-73
2021/10/06 03:12:36;;;;;;;2.10;1.13;;;;;;;12.12;75.38;100255.50;5047380;28;20223;-72
2021/10/06 03:15:02;;;;;;;2.87;1.30;;;;;;;12.10;75.67;100255.59;5035788;28;20226;-72
2021/10/06 03:17:29;;;;;;;3.20;1.17;;;;;;;12.08;75.43;100262.03;5048332;28;20215;-72
2021/10/06 03:19:55;;;;;;;2.07;1.17;;;;;;;12.06;75.57;100269.28;5049875;28;20234;-73
2021/10/06 03:22:23;;;;;;;2.03;1.23;;;;;;;12.03;75.62;100274.84;5041200;28;20212;-72
2021/10/06 03:24:50;;;;;;;3.50;1.20;;;;;;;12.01;75.59;100263.44;5038357;28;20220;-72
2021/10/06 03:27:17;;;;;;;2.10;1.30;;;;;;;11.99;75.77;100263.56;5030624;28;20205;-71
2021/10/06 03:29:43;;;;;;;2.63;1.30;;;;;;;11.99;75.77;100278.75;5049127;28;20226;-71
2021/10/06 03:32:10;;;;;;;7.20;2.03;;;;;;;11.95;75.82;100278.13;5035796;28;20198;-72
2021/10/06 03:34:36;;;;;;;2.80;1.20;;;;;;;11.92;75.87;100283.69;5048471;28;20202;-74
2021/10/06 03:37:03;;;;;;;1.93;1.20;;;;;;;11.91;75.93;100287.31;5036823;28;20240;-71
2021/10/06 03:39:31;;;;;;;2.03;1.10;;;;;;;11.86;76.05;100280.59;5045829;28;20243;-72
2021/10/06 03:41:58;;;;;;;2.63;1.20;;;;;;;11.85;76.09;100292.22;5042727;28;20216;-72
2021/10/06 03:44:24;;;;;;;4.93;1.27;;;;;;;11.82;76.30;100288.00;5047076;28;20210;-71
2021/10/06 03:46:51;;;;;;;2.20;1.30;;;;;;;11.79;76.50;100290.91;5039551;28;20217;-72
2021/10/06 03:49:17;;;;;;;1.63;0.97;;;;;;;11.77;76.29;100295.50;5036167;28;20257;-72
2021/10/06 03:51:44;;;;;;;2.73;1.30;;;;;;;11.76;76.37;100299.97;5039569;28;20590;-71
2021/10/06 03:54:10;;;;;;;1.37;1.20;;;;;;;11.74;76.40;100306.34;5052359;28;20203;-71
2021/10/06 03:56:38;;;;;;;2.83;1.10;;;;;;;11.73;76.43;100307.31;5044585;28;20210;-72
2021/10/06 03:59:05;;;;;;;4.10;1.50;;;;;;;11.71;76.68;100306.56;5035944;28;20254;-71
2021/10/06 04:01:33;;;;;;;1.60;0.93;;;;;;;11.70;76.61;100315.53;5040384;28;20205;-72
2021/10/06 04:03:59;;;;;;;2.53;1.20;;;;;;;11.67;76.66;100316.59;5049858;28;20241;-72
2021/10/06 04:06:26;;;;;;;1.37;1.10;;;;;;;11.66;76.63;100309.56;5042910;28;20220;-69
2021/10/06 04:08:52;;;;;;;1.73;1.10;;;;;;;11.64;76.83;100319.53;5042260;28;20234;-72
2021/10/06 04:11:19;;;;;;;4.07;1.00;;;;;;;11.62;76.93;100317.94;5043362;28;20398;-71
2021/10/06 04:13:46;;;;;;;2.10;1.10;;;;;;;11.61;76.73;100319.75;5043303;28;20206;-72
2021/10/06 04:16:13;;;;;;;2.13;0.90;;;;;;;11.58;76.87;100317.28;5040096;28;20756;-72
2021/10/06 04:18:39;;;;;;;3.13;1.30;;;;;;;11.56;76.89;100313.88;5038652;28;20727;-72
2021/10/06 04:21:06;;;;;;;3.50;1.20;;;;;;;11.56;76.80;100318.38;5042137;28;20230;-72
2021/10/06 04:23:33;;;;;;;4.87;1.50;;;;;;;11.53;76.90;100324.75;5045573;28;20213;-72
2021/10/06 04:25:59;;;;;;;2.47;1.10;;;;;;;11.51;76.94;100325.84;5041405;28;20213;-72
2021/10/06 04:28:26;;;;;;;4.33;1.20;;;;;;;11.49;76.96;100329.47;5038638;28;20769;-69
2021/10/06 04:30:54;;;;;;;2.87;1.40;;;;;;;11.49;77.15;100331.28;5040096;28;20198;-72
2021/10/06 04:33:20;;;;;;;3.70;1.40;;;;;;;11.47;77.06;100334.06;5038887;28;20206;-70
2021/10/06 04:35:47;;;;;;;1.33;1.10;;;;;;;11.48;77.08;100329.56;5041115;28;20206;-72
2021/10/06 04:38:13;;;;;;;2.23;1.20;;;;;;;11.46;76.96;100343.00;5039991;28;20206;-72
2021/10/06 04:40:40;;;;;;;2.67;1.33;;;;;;;11.50;76.76;100340.97;5042783;28;20607;-72
2021/10/06 04:43:10;;;;;;;2.50;1.00;;;;;;;11.48;76.82;100338.41;5043942;28;20207;-72
2021/10/06 04:45:36;;;;;;;1.87;1.00;;;;;;;11.48;76.86;100345.56;5039405;28;20242;-71
2021/10/06 04:48:05;;;;;;;2.57;1.27;;;;;;;11.45;76.83;100349.34;5042530;28;20210;-72
2021/10/06 04:50:32;;;;;;;2.53;1.13;;;;;;;11.45;76.71;100352.00;5041739;28;20217;-72
2021/10/06 04:52:58;;;;;;;3.27;1.20;;;;;;;11.44;76.65;100358.31;5037967;28;20202;-73
2021/10/06 04:55:25;;;;;;;5.03;1.60;;;;;;;11.43;76.65;100353.94;5040388;28;20221;-71
2021/10/06 04:57:53;;;;;;;2.03;1.20;;;;;;;11.41;76.46;100353.19;5041172;28;20221;-72
2021/10/06 05:00:20;;;;;;;2.10;1.00;;;;;;;11.43;76.79;100358.41;5041998;28;20240;-73
2021/10/06 05:02:46;;;;;;;2.57;1.23;;;;;;;11.43;76.53;100355.75;5043737;28;20213;-71
2021/10/06 05:05:14;;;;;;;3.47;1.00;;;;;;;11.41;76.49;100363.84;5045237;28;20205;-72
2021/10/06 05:07:41;;;;;;;1.97;1.07;;;;;;;11.39;76.53;100364.91;5041209;28;20214;-72
2021/10/06 05:10:08;;;;;;;3.33;1.00;;;;;;;11.40;76.33;100369.28;5041766;28;20226;-72
2021/10/06 05:12:35;;;;;;;2.03;0.97;;;;;;;11.39;76.64;100364.91;5044749;28;20214;-72
2021/10/06 05:15:01;;;;;;;2.30;1.20;;;;;;;11.40;76.44;100364.81;5046123;28;20224;-72
2021/10/06 05:17:28;;;;;;;2.00;1.00;;;;;;;11.38;76.43;100358.72;5045754;28;20213;-72
2021/10/06 05:19:54;;;;;;;4.70;1.13;;;;;;;11.38;76.39;100364.06;5037503;28;20230;-72
2021/10/06 05:22:22;;;;;;;1.43;0.87;;;;;;;11.36;76.51;100355.31;5051549;28;20210;-72
2021/10/06 05:24:49;;;;;;;1.77;0.90;;;;;;;11.35;76.47;100363.41;5041672;28;20304;-71
2021/10/06 05:27:15;;;;;;;4.30;1.30;;;;;;;11.36;76.40;100363.31;5037492;28;20210;-73
2021/10/06 05:29:42;;;;;;;1.33;0.87;;;;;;;11.35;76.33;100358.09;5043325;28;20221;-72
2021/10/06 05:32:08;;;;;;;3.40;1.03;;;;;;;11.34;76.46;100373.22;5037397;28;20207;-73
2021/10/06 05:34:35;;;;;;;2.07;0.80;;;;;;;11.32;76.27;100374.28;5044406;28;20209;-72
2021/10/06 05:37:01;;;;;;;3.80;0.97;;;;;;;11.32;76.41;100376.97;5049802;28;20210;-73
2021/10/06 05:39:29;;;;;;;1.70;0.70;;;;;;;11.32;76.29;100376.97;5042135;28;20230;-72
2021/10/06 05:41:56;;;;;;;1.40;0.70;;;;;;;11.29;76.41;100380.69;5044852;28;20232;-72
2021/10/06 05:44:22;;;;;;;1.00;0.80;;;;;;;11.26;76.40;100393.41;5049223;28;20205;-72
2021/10/06 05:46:49;;;;;;;1.47;0.50;;;;;;;11.26;76.47;100393.41;5045429;28;20208;-72
2021/10/06 05:49:15;;;;;;;2.37;1.20;;;;;;;11.26;76.50;100402.25;5038016;28;20324;-73
2021/10/06 05:51:42;;;;;;;1.43;0.60;;;;;;;11.27;76.67;100413.78;5039706;28;20202;-73
2021/10/06 05:54:09;;;;;;;2.57;0.80;;;;;;;11.24;76.66;100414.00;5040501;28;20763;-72
2021/10/06 05:56:37;;;;;;;3.77;0.70;;;;;;;11.23;76.81;100417.59;5049621;28;20210;-73
2021/10/06 05:59:03;;;;;;;3.57;0.80;;;;;;;11.22;76.72;100427.41;5049061;28;20231;-72
2021/10/06 06:01:30;;;;;;;2.37;1.10;;;;;;;11.21;76.92;100430.19;5043167;28;20229;-72
2021/10/06 06:03:57;;;;;;;1.57;0.70;;;;;;;11.21;77.00;100433.72;5044339;28;20217;-72
2021/10/06 06:06:23;;;;;;;1.90;0.90;;;;;;;11.21;76.99;100438.19;5050511;28;20214;-72
2021/10/06 06:08:50;;;;;;;1.33;0.67;;;;;;;11.20;77.12;100431.16;5055723;22;20225;-84
2021/10/06 06:11:16;;;;;;;2.27;0.93;;;;;;;11.17;77.17;100437.53;5058471;28;20233;-85
2021/10/06 06:13:44;;;;;;;1.97;0.60;;;;;;;11.18;77.20;100443.72;5056186;28;20305;-85
2021/10/06 06:16:11;;;;;;;2.50;0.70;;;;;;;11.20;77.31;100433.81;5067707;28;20227;-84
2021/10/06 06:18:38;;;;;;;2.17;0.70;;;;;;;11.22;77.13;100437.22;5045122;28;20209;-84
2021/10/06 06:21:04;;;;;;;1.23;0.83;;;;;;;11.23;77.11;100444.28;5067292;28;20233;-84
2021/10/06 06:23:31;;;;;;;3.07;0.80;;;;;;;11.21;77.51;100441.69;5051186;28;20216;-84
2021/10/06 06:25:58;;;;;;;1.67;0.80;;;;;;;11.21;77.74;100444.38;5073199;28;20220;-85
2021/10/06 06:28:25;;;;;;;1.73;0.70;;;;;;;11.21;77.58;100449.69;5057220;28;20216;-85
2021/10/06 06:30:53;;;;;;;2.00;0.80;;;;;;;11.24;77.49;100446.84;5061645;28;20589;-85
2021/10/06 06:33:19;;;;;;;6.40;0.80;;;;;;;11.25;77.57;100453.00;5056492;28;20216;-85
2021/10/06 06:35:46;;;;;;;1.77;0.87;;;;;;;11.26;77.73;100449.38;5059938;28;20576;-85
2021/10/06 06:38:12;;;;;;;3.77;1.20;;;;;;;11.27;77.63;100456.44;5062113;28;20652;-86
2021/10/06 06:40:41;;;;;;;4.37;0.80;;;;;;;11.29;77.87;100459.81;5068387;28;20244;-84
2021/10/06 06:43:07;;;;;;;1.87;0.80;;;;;;;11.32;77.94;100449.81;5061335;28;20209;-85
2021/10/06 06:45:34;;;;;;;1.93;0.90;;;;;;;11.34;77.59;100469.22;5054227;28;20211;-86
2021/10/06 06:48:03;;;;;;;2.37;1.03;;;;;;;11.38;77.85;100464.53;5062885;28;20205;-85
2021/10/06 06:50:29;;;;;;;1.73;0.60;;;;;;;11.39;77.92;100477.75;5053627;28;20226;-85
2021/10/06 06:52:56;;;;;;;4.97;1.17;;;;;;;11.43;78.06;100475.75;5072314;28;20208;-84
2021/10/06 06:55:22;;;;;;;3.00;1.00;;;;;;;11.47;77.98;100479.88;5057439;28;20207;-85
2021/10/06 06:57:49;;;;;;;2.87;0.93;;;;;;;11.51;77.98;100475.19;5060607;28;20219;-85
2021/10/06 07:00:16;;;;;;;1.07;0.80;;;;;;;11.54;78.04;100467.81;5057634;28;20233;-84
2021/10/06 07:02:42;;;;;;;3.70;1.07;;;;;;;11.59;78.21;100473.69;5072697;28;20209;-84
2021/10/06 07:05:10;;;;;;;3.27;1.00;;;;;;;11.64;78.08;100470.72;5063162;28;20285;-84
2021/10/06 07:07:37;;;;;;;2.00;0.87;;;;;;;11.68;78.14;100477.50;5050748;28;20214;-83
2021/10/06 07:10:04;;;;;;;2.77;0.97;;;;;;;11.73;78.05;100473.56;5042809;28;20227;-84
2021/10/06 07:12:30;;;;;;;1.07;0.53;;;;;;;11.79;77.83;100480.34;5055977;28;20288;-85
2021/10/06 07:14:57;;;;;;;3.10;0.90;;;;;;;11.86;77.51;100470.06;5047974;28;20213;-84
2021/10/06 07:17:24;;;;;;;1.67;0.80;;;;;;;11.91;77.39;100481.25;5048976;28;20216;-82
2021/10/06 07:19:51;;;;;;;3.60;0.90;;;;;;;11.95;77.26;100483.59;5044181;28;20222;-83
2021/10/06 07:22:19;;;;;;;1.93;1.10;;;;;;;12.04;77.20;100476.75;5063534;28;20248;-84
2021/10/06 07:24:46;;;;;;;3.63;0.80;;;;;;;12.10;76.81;100490.50;5040869;28;20241;-86
2021/10/06 07:27:13;;;;;;;2.00;0.60;;;;;;;12.16;76.65;100489.22;5042596;28;20213;-87
2021/10/06 07:29:40;;;;;;;4.47;0.73;;;;;;;12.23;75.74;100494.94;5039763;28;21849;-84
2021/10/06 07:32:07;;;;;;;1.27;0.73;;;;;;;12.28;75.84;100501.66;5052368;28;20204;-87
2021/10/06 07:34:34;;;;;;;3.73;0.90;;;;;;;12.38;75.54;100507.19;5043918;28;20203;-86
2021/10/06 07:37:00;;;;;;;1.37;0.70;;;;;;;12.42;74.71;100509.53;5044808;28;20222;-86
2021/10/06 07:39:28;;;;;;;2.37;0.70;;;;;;;12.48;74.21;100511.75;5046343;28;20303;-84
2021/10/06 07:41:55;;;;;;;2.13;0.80;;;;;;;12.56;74.02;100521.00;5050522;28;20231;-83
2021/10/06 07:44:21;;;;;;;4.27;0.87;;;;;;;12.59;73.88;100529.66;5049082;28;20219;-85
2021/10/06 07:46:48;;;;;;;1.37;0.83;;;;;;;12.63;73.46;100530.28;5047077;28;20291;-84
2021/10/06 07:49:15;;;;;;;1.47;0.70;;;;;;;12.69;73.01;100527.19;5047724;28;20212;-86
2021/10/06 07:51:41;;;;;;;1.53;0.70;;;;;;;12.74;72.86;100531.19;5052528;28;20194;-85
2021/10/06 07:54:08;;;;;;;2.67;0.80;;;;;;;12.74;72.52;100539.22;5043746;28;20758;-84
2021/10/06 07:56:36;;;;;;;3.23;0.93;;;;;;;12.79;72.65;100539.72;5048769;28;20230;-84
2021/10/06 07:59:03;;;;;;;2.50;0.70;;;;;;;12.85;72.11;100554.47;5047449;28;20586;-84
2021/10/06 08:01:30;;;;;;;2.57;0.77;;;;;;;12.87;72.25;100557.88;5041753;28;20265;-84
2021/10/06 08:03:56;;;;;;;1.80;0.60;;;;;;;12.90;71.96;100549.59;5047094;28;20207;-85
2021/10/06 08:06:23;;;;;;;2.60;0.70;;;;;;;12.92;71.46;100555.69;5047184;28;20220;-84
2021/10/06 08:08:49;;;;;;;1.10;0.90;;;;;;;12.95;71.37;100563.50;5041120;28;20744;-85
2021/10/06 08:11:16;;;;;;;1.50;0.70;;;;;;;12.97;71.13;100571.41;5046513;28;20726;-87
2021/10/06 08:13:44;;;;;;;2.20;0.70;;;;;;;12.97;71.04;100574.06;5048896;28;20583;-86
2021/10/06 08:16:11;;;;;;;3.37;0.90;;;;;;;13.01;71.18;100578.22;5047360;28;20208;-86
2021/10/06 08:18:38;;;;;;;1.87;0.70;;;;;;;13.01;70.78;100584.44;5050372;28;20300;-84
2021/10/06 08:21:05;;;;;;;1.03;0.73;;;;;;;13.03;70.32;100582.50;5043322;28;20230;-85
2021/10/06 08:23:31;;;;;;;1.73;0.70;;;;;;;13.03;70.39;100587.84;5046635;28;20220;-84
2021/10/06 08:25:58;;;;;;;1.53;0.83;;;;;;;13.07;70.37;100580.47;5046094;28;20435;-85
2021/10/06 08:28:25;;;;;;;2.33;0.70;;;;;;;13.12;70.39;100576.44;5060728;28;20686;-85
2021/10/06 08:30:53;;;;;;;1.70;0.80;;;;;;;13.24;70.82;100580.06;5052367;28;20226;-84
2021/10/06 08:33:19;;;;;;;2.30;0.83;;;;;;;13.38;69.98;100584.38;5060050;28;20201;-85
2021/10/06 08:35:46;;;;;;;1.80;0.70;;;;;;;13.52;70.21;100577.00;5060988;28;20206;-84
2021/10/06 08:38:13;;;;;;;2.80;0.77;;;;;;;13.68;69.26;100590.03;5052671;28;20216;-86
2021/10/06 08:40:40;;;;;;;3.10;0.60;;;;;;;13.82;69.04;100592.50;5051723;28;20236;-86
2021/10/06 08:43:08;;;;;;;5.43;0.83;;;;;;;13.95;67.93;100586.22;5047237;28;20205;-86
2021/10/06 08:45:36;;;;;;;3.17;0.80;;;;;;;14.09;67.95;100594.84;5051912;28;20210;-86
2021/10/06 08:48:05;;;;;;;2.80;0.60;;;;;;;14.23;67.54;100597.28;5056217;28;20251;-85
2021/10/06 08:50:32;;;;;;;1.97;0.60;;;;;;;14.38;66.88;100603.25;5047682;28;20242;-86
2021/10/06 08:52:59;;;;;;;1.47;0.70;;;;;;;14.50;65.63;100604.16;5052732;28;20215;-86
2021/10/06 08:55:28;;;;;;;1.27;0.70;;;;;;;14.62;65.79;100597.78;5064695;28;20206;-85
2021/10/06 08:57:55;;;;;;;1.87;0.60;;;;;;;14.74;64.00;100598.59;5047909;28;20221;-86
2021/10/06 09:00:22;;;;;;;1.50;0.77;;;;;;;14.80;63.66;100606.16;5058071;28;20225;-86
2021/10/06 09:02:48;;;;;;;1.87;0.90;;;;;;;14.80;63.23;100592.75;5065277;28;20225;-85
2021/10/06 09:05:22;;;;;;;1.73;0.53;;;;;;;14.77;63.00;100607.25;5064603;28;20217;-85
2021/10/06 09:07:56;;;;;;;0.93;0.63;;;;;;;14.72;62.47;100604.09;5056693;28;20209;-85
2021/10/06 09:10:23;;;;;;;1.73;0.53;;;;;;;14.69;62.69;100608.88;5056428;28;20233;-86
2021/10/06 09:13:01;;;;;;;2.33;0.63;;;;;;;14.72;62.82;100600.56;5055344;28;20697;-86
2021/10/06 09:15:29;;;;;;;1.57;0.70;;;;;;;14.79;62.87;100604.44;5060520;28;20212;-85
2021/10/06 09:17:58;;;;;;;1.20;0.80;;;;;;;14.89;63.03;100610.75;5046576;28;20209;-85
2021/10/06 09:20:37;;;;;;;1.80;0.63;;;;;;;14.99;62.34;100610.88;5050000;28;20229;-86
2021/10/06 09:23:05;;;;;;;2.93;0.50;;;;;;;14.98;61.44;100612.69;5059417;28;20690;-85
2021/10/06 09:25:46;;;;;;;1.53;0.50;;;;;;;14.99;61.53;100614.41;5072650;28;20580;-87
2021/10/06 09:28:21;;;;;;;2.03;0.50;;;;;;;15.10;61.57;100611.69;5062503;28;20194;-85
2021/10/06 09:30:52;;;;;;;1.07;0.50;;;;;;;15.19;61.29;100627.03;5044135;28;20316;-85
2021/10/06 09:33:18;;;;;;;0.87;0.40;;;;;;;15.25;61.07;100618.44;5058529;28;20206;-88
2021/10/06 09:35:50;;;;;;;2.03;0.60;;;;;;;15.28;60.58;100623.56;5057998;28;20210;-86
2021/10/06 09:38:17;;;;;;;2.30;0.60;;;;;;;15.35;60.64;100623.91;5067311;28;20577;-86
2021/10/06 09:40:43;;;;;;;1.27;0.70;;;;;;;15.44;60.65;100625.81;5059119;28;20235;-87
2021/10/06 09:43:10;;;;;;;3.13;0.60;;;;;;;15.52;59.88;100630.56;5071672;28;20230;-87
2021/10/06 09:45:56;;;;;;;2.77;0.70;;;;;;;15.53;59.32;100629.56;5056462;28;20220;-85
2021/10/06 09:48:34;;;;;;;2.10;0.60;;;;;;;15.57;59.04;100637.28;5061557;28;20201;-86
2021/10/06 09:51:07;;;;;;;1.73;0.63;;;;;;;15.66;58.62;100632.09;5056206;28;20229;-86
2021/10/06 09:53:34;;;;;;;2.27;0.83;;;;;;;15.70;58.93;100631.72;5065278;28;20298;-85
2021/10/06 09:56:05;;;;;;;2.53;0.50;;;;;;;15.75;58.42;100634.88;5060532;28;20214;-86
2021/10/06 09:58:32;;;;;;;1.47;0.60;;;;;;;15.80;57.94;100632.63;5069864;28;20253;-87
2021/10/06 10:00:59;;;;;;;2.13;0.70;;;;;;;15.85;57.18;100638.44;5064645;28;20223;-86
2021/10/06 10:03:26;;;;;;;1.60;0.60;;;;;;;15.87;57.27;100641.00;5045494;28;20203;-87
2021/10/06 10:05:53;;;;;;;2.13;0.60;;;;;;;15.91;55.90;100634.41;5056221;28;20756;-86
2021/10/06 10:08:22;;;;;;;1.43;0.60;;;;;;;15.88;55.32;100648.09;5054405;28;20212;-86
2021/10/06 10:10:51;;;;;;;1.93;0.90;;;;;;;15.89;55.30;100650.66;5046684;28;20230;-87
2021/10/06 10:13:22;;;;;;;2.37;0.60;;;;;;;15.90;55.55;100657.72;5064189;28;20199;-87
2021/10/06 10:15:49;;;;;;;2.47;0.60;;;;;;;15.96;55.22;100661.69;5062927;28;20213;-87
2021/10/06 10:18:19;;;;;;;1.23;0.63;;;;;;;16.00;55.33;100662.28;5049411;28;20588;-86
2021/10/06 10:20:50;;;;;;;1.77;0.60;;;;;;;16.03;54.90;100662.88;5054267;28;20313;-87
2021/10/06 10:23:18;;;;;;;2.20;0.80;;;;;;;16.04;54.92;100661.91;5053374;28;20222;-86
2021/10/06 10:25:47;;;;;;;0.67;0.57;;;;;;;16.04;54.46;100667.28;5054203;28;20565;-87
2021/10/06 10:28:15;;;;;;;2.57;0.67;;;;;;;15.94;53.75;100686.00;5049745;28;20239;-87
2021/10/06 10:30:58;;;;;;;0.90;0.50;;;;;;;15.88;54.40;100675.78;5051315;28;20318;-87
2021/10/06 10:33:37;;;;;;;2.03;0.60;;;;;;;15.88;55.24;100680.31;5056451;28;20203;-88
2021/10/06 10:36:04;;;;;;;5.70;0.70;;;;;;;15.86;55.38;100683.13;5055830;28;20608;-87
2021/10/06 10:38:36;;;;;;;1.10;0.50;;;;;;;15.87;55.42;100687.53;5051172;28;20717;-87
2021/10/06 10:41:04;;;;;;;2.70;0.50;;;;;;;15.86;55.60;100677.75;5054211;28;20223;-87
2021/10/06 10:43:32;;;;;;;3.93;0.70;;;;;;;15.87;55.15;100684.84;5047946;28;20321;-87
2021/10/06 10:46:11;;;;;;;0.77;0.57;;;;;;;15.86;55.04;100683.13;5045291;28;20684;-87
2021/10/06 10:49:02;;;;;;;2.30;0.60;;;;;;;15.89;55.12;100682.88;5053935;28;20211;-88
2021/10/06 10:51:49;;;;;;;2.50;0.70;;;;;;;15.95;55.69;100690.38;5050817;28;20595;-88
2021/10/06 10:54:37;;;;;;;2.10;0.63;;;;;;;16.04;55.61;100686.09;5055284;28;20289;-88
2021/10/06 10:57:18;;;;;;;2.90;0.70;;;;;;;16.07;55.11;100679.59;5044512;28;20203;-88
2021/10/06 10:59:47;;;;;;;1.57;0.70;;;;;;;16.07;54.74;100687.66;5050775;28;20228;-88
2021/10/06 11:02:19;;;;;;;0.47;0.40;;;;;;;16.08;54.81;100676.78;5051087;28;20689;-88
2021/10/06 11:04:48;;;;;;;1.97;0.83;;;;;;;16.10;54.67;100680.19;5053031;28;20264;-83
2021/10/06 11:07:18;;;;;;;2.13;0.70;;;;;;;16.09;53.91;100683.88;5060529;28;20243;-82
2021/10/06 11:09:48;;;;;;;1.80;0.60;;;;;;;16.05;54.24;100686.94;5068466;28;20261;-82
2021/10/06 11:12:45;;;;;;;2.43;0.70;;;;;;;16.03;54.19;100686.22;5060313;28;20330;-83
2021/10/06 11:15:32;;;;;;;1.10;0.40;;;;;;;16.05;54.46;100685.09;5051765;28;20208;-82
2021/10/06 11:18:38;;;;;;;1.07;0.60;;;;;;;16.09;54.05;100683.00;5052330;28;20673;-83
2021/10/06 11:21:07;;;;;;;2.60;0.70;;;;;;;16.15;54.09;100685.16;5057775;28;20307;-80
2021/10/06 11:23:59;;;;;;;1.77;0.50;;;;;;;16.24;54.31;100685.22;5074760;28;20244;-82
2021/10/06 11:26:32;;;;;;;1.83;0.60;;;;;;;16.30;53.27;100686.53;5061729;28;20236;-84
2021/10/06 11:29:03;;;;;;;2.33;0.70;;;;;;;16.33;52.93;100686.25;5073548;28;20687;-82